createdAt,value
2024-03-25T00:04:00.283Z,5.33
2024-03-25T00:09:02.445Z,5.42
2024-03-25T00:14:07.517Z,5.44
2024-03-25T00:19:09.604Z,5.43
2024-03-25T00:24:11.696Z,5.43
2024-03-25T00:29:13.733Z,5.41
2024-03-25T00:34:15.955Z,5.37
2024-03-25T00:39:18.668Z,5.32
2024-03-25T00:44:20.836Z,5.23
2024-03-25T00:49:23.019Z,5.15
2024-03-25T00:54:25.104Z,5.11
2024-03-25T00:59:27.129Z,5.12
2024-03-25T01:04:29.768Z,5.09
2024-03-25T01:09:32.482Z,5.04
2024-03-25T01:14:34.419Z,4.97
2024-03-25T01:19:36.328Z,4.89
2024-03-25T01:24:38.320Z,4.90
2024-03-25T01:29:40.503Z,4.84
2024-03-25T01:34:42.589Z,4.85
2024-03-25T01:39:44.672Z,4.87
2024-03-25T01:44:47.779Z,4.90
2024-03-25T01:49:54.329Z,4.89
2024-03-25T01:54:57.169Z,5.00
2024-03-25T01:59:59.636Z,5.03
2024-03-25T02:05:02.972Z,5.07
2024-03-25T02:10:05.350Z,5.11
2024-03-25T02:15:08.670Z,5.17
2024-03-25T02:20:12.610Z,5.25
2024-03-25T02:25:15.096Z,5.27
2024-03-25T02:30:17.275Z,5.25
2024-03-25T02:35:19.191Z,5.26
2024-03-25T02:40:23.402Z,5.22
2024-03-25T02:45:25.404Z,5.20
2024-03-25T02:50:27.397Z,5.17
2024-03-25T02:55:29.436Z,5.22
2024-03-25T03:00:31.424Z,5.24
2024-03-25T03:05:33.630Z,5.31
2024-03-25T03:10:35.469Z,5.38
2024-03-25T03:15:37.359Z,5.40
2024-03-25T03:20:39.444Z,5.36
2024-03-25T03:25:41.938Z,5.31
2024-03-25T03:30:44.738Z,5.22
2024-03-25T03:35:46.611Z,5.18
2024-03-25T03:41:02.326Z,5.20
2024-03-25T03:46:04.812Z,5.16
2024-03-25T03:51:07.610Z,5.21
2024-03-25T03:56:10.303Z,5.14
2024-03-25T04:01:16.894Z,5.10
2024-03-25T04:06:19.218Z,5.03
2024-03-25T04:11:21.375Z,4.97
2024-03-25T04:16:23.578Z,4.91
2024-03-25T04:21:25.475Z,4.87
2024-03-25T04:26:27.372Z,4.82
2024-03-25T04:31:29.292Z,4.83
2024-03-25T04:36:31.736Z,4.85
2024-03-25T04:41:33.764Z,4.84
2024-03-25T04:46:35.792Z,4.88
2024-03-25T04:51:38.164Z,4.84
2024-03-25T04:56:40.010Z,4.79
2024-03-25T05:01:41.953Z,4.78
2024-03-25T05:06:43.813Z,4.75
2024-03-25T05:11:46.187Z,4.76
2024-03-25T05:16:49.678Z,4.81
2024-03-25T05:21:51.864Z,4.84
2024-03-25T05:26:53.756Z,4.86
2024-03-25T05:32:02.858Z,4.92
2024-03-25T05:37:05.845Z,5.02
2024-03-25T05:42:08.581Z,5.15
2024-03-25T05:47:10.561Z,5.41
2024-03-25T05:52:12.425Z,5.80
2024-03-25T05:57:14.379Z,5.99
2024-03-25T06:02:16.360Z,6.18
2024-03-25T06:07:18.619Z,6.48
2024-03-25T06:12:20.654Z,6.72
2024-03-25T06:17:22.765Z,6.79
2024-03-25T06:22:24.710Z,6.85
2024-03-25T06:27:26.806Z,6.93
2024-03-25T06:32:47.744Z,7.11
2024-03-25T06:37:49.708Z,7.17
2024-03-25T06:42:51.698Z,7.29
2024-03-25T06:47:53.784Z,7.38
2024-03-25T06:52:56.026Z,7.38
2024-03-25T06:57:58.151Z,7.47
2024-03-25T07:03:01.000Z,7.51
2024-03-25T07:08:03.447Z,7.42
2024-03-25T07:13:06.447Z,7.59
2024-03-25T07:18:08.309Z,7.87
2024-03-25T07:23:10.760Z,8.21
2024-03-25T07:28:12.900Z,8.49
2024-03-25T07:33:14.689Z,8.69
2024-03-25T07:38:16.777Z,8.96
2024-03-25T07:43:18.846Z,9.11
2024-03-25T07:48:20.845Z,9.18
2024-03-25T07:53:22.688Z,8.88
2024-03-25T07:58:25.387Z,8.75
2024-03-25T08:03:27.675Z,8.81
2024-03-25T08:08:30.291Z,8.65
2024-03-25T08:13:32.371Z,8.62
2024-03-25T08:18:34.843Z,8.54
2024-03-25T08:23:36.962Z,8.40
2024-03-25T08:28:39.170Z,8.40
2024-03-25T08:33:41.225Z,8.51
2024-03-25T08:38:43.330Z,8.97
2024-03-25T08:43:45.277Z,9.34
2024-03-25T08:48:47.353Z,9.71
2024-03-25T08:53:50.719Z,10.16
2024-03-25T08:58:55.424Z,10.60
2024-03-25T09:03:57.750Z,10.86
2024-03-25T09:09:18.500Z,10.89
2024-03-25T09:14:20.465Z,10.94
2024-03-25T09:19:23.458Z,10.74
2024-03-25T09:24:25.543Z,10.69
2024-03-25T09:29:27.538Z,10.65
2024-03-25T09:34:29.601Z,10.49
2024-03-25T09:39:32.675Z,10.82
2024-03-25T09:44:35.386Z,11.19
2024-03-25T09:49:37.858Z,11.45
2024-03-25T09:54:42.859Z,11.59
2024-03-25T09:59:44.875Z,11.59
2024-03-25T10:04:49.884Z,11.82
2024-03-25T10:09:52.429Z,11.93
2024-03-25T10:14:54.576Z,12.10
2024-03-25T10:19:56.579Z,12.23
2024-03-25T10:24:59.230Z,12.23
2024-03-25T10:30:02.672Z,12.50
2024-03-25T10:35:05.747Z,12.47
2024-03-25T10:40:12.895Z,12.29
2024-03-25T10:45:14.829Z,12.34
2024-03-25T10:50:18.965Z,12.34
2024-03-25T10:55:22.881Z,12.45
2024-03-25T11:00:25.021Z,12.50
2024-03-25T11:05:28.009Z,12.49
2024-03-25T11:10:30.611Z,12.62
2024-03-25T11:15:44.228Z,12.32
2024-03-25T11:20:46.322Z,12.47
2024-03-25T11:25:55.982Z,12.46
2024-03-25T11:30:57.847Z,12.46
2024-03-25T11:36:00.690Z,12.55
2024-03-25T11:41:03.009Z,12.80
2024-03-25T11:46:06.463Z,12.89
2024-03-25T11:51:13.238Z,13.29
2024-03-25T11:56:15.495Z,13.90
2024-03-25T12:01:17.519Z,13.50
2024-03-25T12:06:19.702Z,13.39
2024-03-25T12:11:21.947Z,13.42
2024-03-25T12:16:24.903Z,13.36
2024-03-25T12:21:26.985Z,13.32
2024-03-25T12:26:32.443Z,13.33
2024-03-25T12:31:34.938Z,13.47
2024-03-25T12:36:36.971Z,13.50
2024-03-25T12:41:39.091Z,13.39
2024-03-25T12:46:41.175Z,13.53
2024-03-25T12:51:43.364Z,13.75
2024-03-25T12:56:45.369Z,13.81
2024-03-25T13:01:47.427Z,13.54
2024-03-25T13:06:49.567Z,13.38
2024-03-25T13:11:51.667Z,13.34
2024-03-25T13:16:53.853Z,13.25
2024-03-25T13:21:59.146Z,13.15
2024-03-25T13:27:01.437Z,13.08
2024-03-25T13:32:05.941Z,13.18
2024-03-25T13:37:08.350Z,13.36
2024-03-25T13:42:10.250Z,13.23
2024-03-25T13:47:12.365Z,12.90
2024-03-25T13:52:14.379Z,12.74
2024-03-25T13:57:16.818Z,12.97
2024-03-25T14:02:19.058Z,13.03
2024-03-25T14:07:21.134Z,12.91
2024-03-25T14:12:24.505Z,13.00
2024-03-25T14:17:26.838Z,12.63
2024-03-25T14:22:28.899Z,12.23
2024-03-25T14:27:30.800Z,12.09
2024-03-25T14:32:32.708Z,12.30
2024-03-25T14:37:34.545Z,12.22
2024-03-25T14:42:37.593Z,12.17
2024-03-25T14:47:39.541Z,12.13
2024-03-25T14:52:41.378Z,11.93
2024-03-25T15:40:52.707Z,11.76
2024-03-25T15:46:02.830Z,11.28
2024-03-25T15:51:06.707Z,11.02
2024-03-25T15:56:10.123Z,10.87
2024-03-25T16:01:13.019Z,10.69
2024-03-25T16:06:16.072Z,10.54
2024-03-25T16:11:21.517Z,10.41
2024-03-25T16:16:24.568Z,10.30
2024-03-25T16:21:28.471Z,10.32
2024-03-25T16:26:31.488Z,10.28
2024-03-25T16:31:34.464Z,10.24
2024-03-25T16:36:37.523Z,10.11
2024-03-25T16:41:40.680Z,9.95
2024-03-25T16:46:44.203Z,9.75
2024-03-25T16:51:47.136Z,9.55
2024-03-25T16:56:50.047Z,9.28
2024-03-25T17:01:56.432Z,9.05
2024-03-25T17:06:59.520Z,8.89
2024-03-25T17:12:02.621Z,8.72
2024-03-25T17:17:05.977Z,8.59
2024-03-25T17:22:08.835Z,8.50
2024-03-25T17:27:12.086Z,8.37
2024-03-25T17:32:15.058Z,8.21
2024-03-25T17:37:18.150Z,8.13
2024-03-25T17:42:21.286Z,8.06
2024-03-25T17:47:24.254Z,7.98
2024-03-25T17:52:27.472Z,7.97
2024-03-25T17:57:31.363Z,7.97
2024-03-25T18:02:34.823Z,7.99
2024-03-25T18:07:39.087Z,7.90
2024-03-25T18:12:41.889Z,7.87
2024-03-25T18:17:44.836Z,7.81
2024-03-25T18:22:47.954Z,7.77
2024-03-25T18:27:50.911Z,7.74
2024-03-25T18:32:53.781Z,7.72
2024-03-25T18:37:56.797Z,7.70
2024-03-25T18:42:59.700Z,7.64
2024-03-25T18:48:03.387Z,7.57
2024-03-25T18:53:06.361Z,7.54
2024-03-25T18:58:10.773Z,7.50
2024-03-25T19:03:13.828Z,7.52
2024-03-25T19:08:16.776Z,7.57
2024-03-25T19:13:19.604Z,7.54
2024-03-25T19:18:22.731Z,7.52
2024-03-25T19:23:25.871Z,7.49
2024-03-25T19:28:29.133Z,7.43
2024-03-25T19:33:32.025Z,7.34
2024-03-25T19:38:35.327Z,7.27
2024-03-25T19:43:39.284Z,7.33
2024-03-25T19:48:42.567Z,7.27
2024-03-25T19:53:45.439Z,7.19
2024-03-25T19:58:48.357Z,7.18
2024-03-25T20:03:52.780Z,7.20
2024-03-25T20:08:55.724Z,7.24
2024-03-25T20:13:58.614Z,7.25
2024-03-25T20:19:01.897Z,7.31
2024-03-25T20:24:05.524Z,7.35
2024-03-25T20:29:08.452Z,7.32
2024-03-25T20:34:11.461Z,7.28
2024-03-25T20:39:14.295Z,7.31
2024-03-25T20:44:17.703Z,7.33
2024-03-25T20:49:20.701Z,7.32
2024-03-25T20:54:25.715Z,7.34
2024-03-25T20:59:39.360Z,7.31
2024-03-25T21:04:42.929Z,7.23
2024-03-25T21:09:46.056Z,7.12
2024-03-25T21:14:48.914Z,7.02
2024-03-25T21:19:52.475Z,6.90
2024-03-25T21:24:55.385Z,6.78
2024-03-25T21:29:58.667Z,6.67
2024-03-25T21:35:01.620Z,6.56
2024-03-25T21:40:06.049Z,6.60
2024-03-25T21:45:09.731Z,6.65
2024-03-25T21:50:12.678Z,6.69
2024-03-25T21:55:15.700Z,6.70
2024-03-25T22:00:18.710Z,6.70
2024-03-25T22:05:22.775Z,6.65
2024-03-25T22:15:34.381Z,6.49
2024-03-25T22:20:40.382Z,6.38
2024-03-25T22:25:43.255Z,6.30
2024-03-25T22:30:46.194Z,6.17
2024-03-25T22:36:00.731Z,6.05
2024-03-25T22:41:03.672Z,6.06
2024-03-25T22:46:06.562Z,6.02
2024-03-25T22:51:09.620Z,5.95
2024-03-25T22:56:13.921Z,5.89
2024-03-25T23:01:16.684Z,5.77
2024-03-25T23:06:19.951Z,5.67
2024-03-25T23:11:22.912Z,5.55
2024-03-25T23:16:29.149Z,5.51
2024-03-25T23:21:33.691Z,5.47
2024-03-25T23:26:36.683Z,5.37
2024-03-25T23:31:39.519Z,5.38
2024-03-25T23:36:42.407Z,5.38
2024-03-25T23:41:45.203Z,5.30
2024-03-25T23:46:48.103Z,5.20
2024-03-25T23:51:51.053Z,5.08
2024-03-25T23:56:53.862Z,4.92
